Rickreall, Oregon
Current Conditions -  °F | °C
As of 9:56 PM on Saturday 20 Dec 2014 (Local Time) from KSLE Reporting Station
Light Rain Light Rain  
Wind Chill: 58°   Ceiling: 3700
Heat Index: 58°   Visibility: 10mi
Dew Point: 55°   Wind: 16mph
Humidity: 90%   Direction: 200°SSW
Pressure: 29.76"   Gusts: 23mph
Location:  44.93°N, 123.23°W
Report Text: KSLE 210556Z AUTO 20014G20KT 10SM -RA SCT014 BKN037 OVC075 14/13 A2976 RMK AO2 SLP077 P0001 60030 T01440128 10144 20122 53017
Loading
Personal Weather Stations






























Interactive Weather Map New forecast layout! Learn more

10-Day Weather Forecast

Advertisements
Track Severe Weather on mobile